createdAt,value
2018-01-26T00:00:59.825Z,10.34
2018-01-26T00:03:06.306Z,10.30
2018-01-26T00:04:06.327Z,10.31
2018-01-26T00:05:58.494Z,10.41
2018-01-26T00:06:58.508Z,10.38
2018-01-26T00:08:50.732Z,10.09
2018-01-26T00:09:50.741Z,10.03
2018-01-26T00:11:43.879Z,10.06
2018-01-26T00:12:43.900Z,10.06
2018-01-26T00:14:36.084Z,10.17
2018-01-26T00:15:36.098Z,10.12
2018-01-26T00:17:29.249Z,10.12
2018-01-26T00:18:29.269Z,10.12
2018-01-26T00:20:21.455Z,10.09
2018-01-26T00:21:21.468Z,10.10
2018-01-26T00:23:14.613Z,10.18
2018-01-26T00:24:14.637Z,10.15
2018-01-26T00:26:07.787Z,10.15
2018-01-26T00:27:07.785Z,10.23
2018-01-26T00:29:00.948Z,10.03
2018-01-26T00:30:00.947Z,9.95
2018-01-26T00:31:54.139Z,9.87
2018-01-26T00:32:54.161Z,9.85
2018-01-26T00:34:47.310Z,9.88
2018-01-26T00:35:47.310Z,9.77
2018-01-26T00:37:39.484Z,9.84
2018-01-26T00:38:39.507Z,9.76
2018-01-26T00:40:32.656Z,9.74
2018-01-26T00:41:32.668Z,9.76
2018-01-26T00:43:24.823Z,9.77
2018-01-26T00:44:24.820Z,9.76
2018-01-26T00:46:17.009Z,9.82
2018-01-26T00:47:17.006Z,9.99
2018-01-26T00:49:09.171Z,10.02
2018-01-26T00:50:09.178Z,9.99
2018-01-26T00:52:02.353Z,10.07
2018-01-26T00:53:02.363Z,10.02
2018-01-26T00:54:55.553Z,10.18
2018-01-26T00:55:55.561Z,10.15
2018-01-26T00:57:48.736Z,10.10
2018-01-26T00:58:48.760Z,10.12
2018-01-26T01:00:55.278Z,10.12
2018-01-26T01:01:55.287Z,10.05
2018-01-26T01:03:48.432Z,10.15
2018-01-26T01:04:48.451Z,10.17
2018-01-26T01:06:41.602Z,10.10
2018-01-26T01:07:41.609Z,10.13
2018-01-26T01:09:34.769Z,10.17
2018-01-26T01:10:34.778Z,10.07
2018-01-26T01:12:27.954Z,10.13
2018-01-26T01:13:27.998Z,10.09
2018-01-26T01:15:21.145Z,10.09
2018-01-26T01:16:21.137Z,10.17
2018-01-26T01:18:13.287Z,10.12
2018-01-26T01:19:13.300Z,10.18
2018-01-26T01:21:05.510Z,10.12
2018-01-26T01:22:05.514Z,10.10
2018-01-26T01:23:58.681Z,10.13
2018-01-26T01:24:58.801Z,10.10
2018-01-26T01:26:51.891Z,9.97
2018-01-26T01:27:51.900Z,10.02
2018-01-26T01:29:44.092Z,9.97
2018-01-26T01:30:44.074Z,10.07
2018-01-26T01:32:37.224Z,10.06
2018-01-26T01:33:37.245Z,10.05
2018-01-26T01:35:29.412Z,10.02
2018-01-26T01:36:29.417Z,10.05
2018-01-26T01:38:21.551Z,10.09
2018-01-26T01:39:21.573Z,10.06
2018-01-26T01:41:14.772Z,10.10
2018-01-26T01:42:14.771Z,10.15
2018-01-26T01:44:07.924Z,10.12
2018-01-26T01:45:07.942Z,10.18
2018-01-26T01:47:14.447Z,10.10
2018-01-26T01:48:14.459Z,10.10
2018-01-26T01:50:07.668Z,10.17
2018-01-26T01:51:07.668Z,10.07
2018-01-26T01:53:00.805Z,10.07
2018-01-26T01:54:00.826Z,10.13
2018-01-26T01:55:53.007Z,10.12
2018-01-26T01:56:53.014Z,10.18
2018-01-26T01:58:46.175Z,10.10
2018-01-26T01:59:46.210Z,10.13
2018-01-26T02:01:39.341Z,10.17
2018-01-26T02:02:39.350Z,10.15
2018-01-26T02:04:31.543Z,10.17
2018-01-26T02:05:31.593Z,10.12
2018-01-26T02:07:24.738Z,10.03
2018-01-26T02:08:24.746Z,10.13
2018-01-26T02:10:17.887Z,10.06
2018-01-26T02:11:17.912Z,10.17
2018-01-26T02:13:11.055Z,10.12
2018-01-26T02:14:11.083Z,10.05
2018-01-26T02:16:03.223Z,10.20
2018-01-26T02:17:03.234Z,10.06
2018-01-26T02:18:56.362Z,10.05
2018-01-26T02:19:56.385Z,10.05
2018-01-26T02:21:49.533Z,10.02
2018-01-26T02:22:49.547Z,10.10
2018-01-26T02:24:41.699Z,10.12
2018-01-26T02:25:41.702Z,10.12
2018-01-26T02:27:34.885Z,10.13
2018-01-26T02:28:34.879Z,10.13
2018-01-26T02:30:28.037Z,10.18
2018-01-26T02:31:28.056Z,10.07
2018-01-26T02:33:21.228Z,10.17
2018-01-26T02:34:21.231Z,10.05
2018-01-26T02:36:14.417Z,10.03
2018-01-26T02:37:14.407Z,10.13
2018-01-26T02:39:07.550Z,10.10
2018-01-26T02:40:07.574Z,10.17
2018-01-26T02:41:59.740Z,10.13
2018-01-26T02:42:59.743Z,10.15
2018-01-26T02:44:52.886Z,10.15
2018-01-26T02:45:52.904Z,10.09
2018-01-26T02:47:46.059Z,10.13
2018-01-26T02:48:46.061Z,10.09
2018-01-26T02:50:38.226Z,10.12
2018-01-26T02:51:38.248Z,10.06
2018-01-26T02:53:31.401Z,10.13
2018-01-26T02:54:31.409Z,10.10
2018-01-26T02:56:24.562Z,10.18
2018-01-26T02:57:24.574Z,10.09
2018-01-26T02:59:16.724Z,10.10
2018-01-26T03:00:16.740Z,10.05
2018-01-26T03:02:09.911Z,10.05
2018-01-26T03:03:09.922Z,10.09
2018-01-26T03:05:03.058Z,10.10
2018-01-26T03:06:03.077Z,10.07
2018-01-26T03:07:56.985Z,10.10
2018-01-26T03:08:56.239Z,10.12
2018-01-26T03:10:49.382Z,10.09
2018-01-26T03:11:49.404Z,10.02
2018-01-26T03:13:41.603Z,10.12
2018-01-26T03:14:41.616Z,10.17
2018-01-26T03:16:33.779Z,10.13
2018-01-26T03:17:33.787Z,10.07
2018-01-26T03:19:26.931Z,10.15
2018-01-26T03:20:26.945Z,10.09
2018-01-26T03:22:20.101Z,10.10
2018-01-26T03:23:20.112Z,10.06
2018-01-26T03:25:13.247Z,10.05
2018-01-26T03:26:13.267Z,10.07
2018-01-26T03:28:06.482Z,10.09
2018-01-26T03:29:06.479Z,10.03
2018-01-26T03:30:58.649Z,10.05
2018-01-26T03:31:58.662Z,10.06
2018-01-26T03:33:51.839Z,10.02
2018-01-26T03:34:51.841Z,10.02
2018-01-26T03:36:44.018Z,10.05
2018-01-26T03:37:44.014Z,10.03
2018-01-26T03:39:37.198Z,10.03
2018-01-26T03:40:37.230Z,10.07
2018-01-26T03:42:30.388Z,10.05
2018-01-26T03:43:30.399Z,10.05
2018-01-26T03:45:23.536Z,10.02
2018-01-26T03:46:23.555Z,10.02
2018-01-26T03:48:16.725Z,10.02
2018-01-26T03:49:16.735Z,10.02
2018-01-26T03:51:09.889Z,10.03
2018-01-26T03:52:09.913Z,10.00
2018-01-26T03:54:02.093Z,10.00
2018-01-26T03:55:02.105Z,9.95
2018-01-26T03:56:55.273Z,10.06
2018-01-26T03:57:55.286Z,10.02
2018-01-26T04:00:04.799Z,10.02
2018-01-26T04:01:04.810Z,10.00
2018-01-26T04:02:57.959Z,10.06
2018-01-26T04:03:57.969Z,9.97
2018-01-26T04:05:51.446Z,9.99
2018-01-26T04:06:51.144Z,10.00
2018-01-26T04:09:00.647Z,10.00
2018-01-26T04:10:00.657Z,10.02
2018-01-26T04:11:53.847Z,10.03
2018-01-26T04:12:53.867Z,9.81
2018-01-26T04:14:47.065Z,9.74
2018-01-26T04:15:47.073Z,9.73
2018-01-26T04:17:40.249Z,9.77
2018-01-26T04:18:40.256Z,9.77
2018-01-26T04:20:33.422Z,9.76
2018-01-26T04:21:33.439Z,9.74
2018-01-26T04:23:26.617Z,9.80
2018-01-26T04:24:26.606Z,9.81
2018-01-26T04:26:18.755Z,9.77
2018-01-26T04:27:18.775Z,9.77
2018-01-26T04:29:11.933Z,9.82
2018-01-26T04:30:11.947Z,9.90
2018-01-26T04:32:05.159Z,9.84
2018-01-26T04:33:05.186Z,9.80
2018-01-26T04:34:58.338Z,9.77
2018-01-26T04:35:58.344Z,9.80
2018-01-26T04:37:51.511Z,9.85
2018-01-26T04:38:51.521Z,9.82
2018-01-26T04:40:44.664Z,9.76
2018-01-26T04:41:44.677Z,9.90
2018-01-26T04:43:37.838Z,9.74
2018-01-26T04:44:37.846Z,9.77
2018-01-26T04:46:31.016Z,9.87
2018-01-26T04:47:31.061Z,9.76
2018-01-26T04:49:24.210Z,9.74
2018-01-26T04:50:24.209Z,9.80
2018-01-26T04:52:16.367Z,9.80
2018-01-26T04:53:16.388Z,9.77
2018-01-26T04:55:09.544Z,9.76
2018-01-26T04:56:09.551Z,9.74
2018-01-26T04:58:02.733Z,9.85
2018-01-26T04:59:02.721Z,9.80
2018-01-26T05:00:55.867Z,9.72
2018-01-26T05:01:55.887Z,9.74
2018-01-26T05:03:49.037Z,9.63
2018-01-26T05:04:49.046Z,9.62
2018-01-26T05:06:42.186Z,9.73
2018-01-26T05:07:42.201Z,9.73
2018-01-26T05:09:35.414Z,9.72
2018-01-26T05:10:35.406Z,9.64
2018-01-26T05:12:27.555Z,9.70
2018-01-26T05:13:27.574Z,9.66
2018-01-26T05:15:20.753Z,9.58
2018-01-26T05:16:20.760Z,9.62
2018-01-26T05:18:12.917Z,9.72
2018-01-26T05:19:12.943Z,9.58
2018-01-26T05:21:06.097Z,9.58
2018-01-26T05:22:06.105Z,9.63
2018-01-26T05:23:58.259Z,9.62
2018-01-26T05:24:58.262Z,9.67
2018-01-26T05:26:50.452Z,9.72
2018-01-26T05:27:50.478Z,9.72
2018-01-26T05:29:43.641Z,9.69
2018-01-26T05:30:43.692Z,9.63
2018-01-26T05:32:35.860Z,9.73
2018-01-26T05:33:35.883Z,9.64
2018-01-26T05:35:29.139Z,9.72
2018-01-26T05:36:29.111Z,9.80
2018-01-26T05:38:21.237Z,9.39
2018-01-26T05:39:21.259Z,9.30
2018-01-26T05:41:14.444Z,9.15
2018-01-26T05:42:14.437Z,8.90
2018-01-26T05:44:07.603Z,8.96
2018-01-26T05:45:07.617Z,8.87
2018-01-26T05:47:00.800Z,8.90
2018-01-26T05:48:00.800Z,9.09
2018-01-26T05:49:53.996Z,9.02
2018-01-26T05:50:53.981Z,9.18
2018-01-26T05:52:47.119Z,9.02
2018-01-26T05:53:47.138Z,8.72
2018-01-26T05:55:40.314Z,8.84
2018-01-26T05:56:40.335Z,8.77
2018-01-26T05:58:32.538Z,8.74
2018-01-26T05:59:32.582Z,8.78
2018-01-26T06:01:25.710Z,8.68
2018-01-26T06:02:25.715Z,8.68
2018-01-26T06:04:17.951Z,8.69
2018-01-26T06:05:17.958Z,8.61
2018-01-26T06:07:10.157Z,8.77
2018-01-26T06:08:10.180Z,8.78
2018-01-26T06:10:02.469Z,8.63
2018-01-26T06:11:02.463Z,8.74
2018-01-26T06:12:54.687Z,8.90
2018-01-26T06:13:54.708Z,8.90
2018-01-26T06:15:46.945Z,9.05
2018-01-26T06:16:46.939Z,9.02
2018-01-26T06:18:39.181Z,9.11
2018-01-26T06:19:39.190Z,9.24
2018-01-26T06:21:31.384Z,9.15
2018-01-26T06:22:31.395Z,9.21
2018-01-26T06:24:23.688Z,9.03
2018-01-26T06:25:23.682Z,9.09
2018-01-26T06:27:15.887Z,9.08
2018-01-26T06:28:15.917Z,8.92
2018-01-26T06:30:08.100Z,9.00
2018-01-26T06:31:08.093Z,9.05
2018-01-26T06:33:00.429Z,8.96
2018-01-26T06:34:00.456Z,8.84
2018-01-26T06:35:52.682Z,8.84
2018-01-26T06:36:52.678Z,8.87
2018-01-26T06:38:45.034Z,8.90
2018-01-26T06:39:45.028Z,8.90
2018-01-26T06:41:37.235Z,8.96
2018-01-26T06:42:37.184Z,8.89
2018-01-26T06:44:29.331Z,8.87
2018-01-26T06:45:29.346Z,8.87
2018-01-26T06:47:21.522Z,8.81
2018-01-26T06:48:21.528Z,8.90
2018-01-26T06:50:13.720Z,8.89
2018-01-26T06:51:13.721Z,8.89
2018-01-26T06:53:06.883Z,8.95
2018-01-26T06:54:06.909Z,8.89
2018-01-26T06:56:00.071Z,8.93
2018-01-26T06:57:00.082Z,8.90
2018-01-26T06:58:53.263Z,8.92
2018-01-26T06:59:53.284Z,8.89
2018-01-26T07:01:46.438Z,8.90
2018-01-26T07:02:46.525Z,8.72
2018-01-26T07:04:39.631Z,8.82
2018-01-26T07:05:39.654Z,8.86
2018-01-26T07:07:32.881Z,8.68
2018-01-26T07:08:32.873Z,8.61
2018-01-26T07:10:26.105Z,8.77
2018-01-26T07:11:26.100Z,8.71
2018-01-26T07:13:18.252Z,8.81
2018-01-26T07:14:18.274Z,8.82
2018-01-26T07:16:11.433Z,8.87
2018-01-26T07:17:11.428Z,8.86
2018-01-26T07:19:04.607Z,8.92
2018-01-26T07:20:04.606Z,8.82
2018-01-26T07:21:57.796Z,8.82
2018-01-26T07:22:57.808Z,8.78
2018-01-26T07:24:51.019Z,8.84
2018-01-26T07:25:50.973Z,8.81
2018-01-26T07:27:44.159Z,8.84
2018-01-26T07:28:44.168Z,8.87
2018-01-26T07:30:37.327Z,8.92
2018-01-26T07:31:37.336Z,8.95
2018-01-26T07:33:30.467Z,8.92
2018-01-26T07:34:30.498Z,8.95
2018-01-26T07:36:23.658Z,8.87
2018-01-26T07:37:23.661Z,8.92
2018-01-26T07:39:16.822Z,8.93
2018-01-26T07:40:16.837Z,8.99
2018-01-26T07:42:10.017Z,8.89
2018-01-26T07:43:10.009Z,8.90
2018-01-26T07:45:03.178Z,8.90
2018-01-26T07:46:03.189Z,8.90
2018-01-26T07:47:56.348Z,8.95
2018-01-26T07:48:56.409Z,8.90
2018-01-26T07:50:49.843Z,8.86
2018-01-26T07:51:49.537Z,8.86
2018-01-26T07:53:42.670Z,8.86
2018-01-26T07:54:42.701Z,8.84
2018-01-26T07:56:35.836Z,8.86
2018-01-26T07:57:35.855Z,8.95
2018-01-26T07:59:28.990Z,8.86
2018-01-26T08:00:29.020Z,8.84
2018-01-26T08:02:22.163Z,8.81
2018-01-26T08:03:22.170Z,8.81
2018-01-26T08:05:14.332Z,8.81
2018-01-26T08:06:14.344Z,8.95
2018-01-26T08:08:06.515Z,8.87
2018-01-26T08:09:06.513Z,8.79
2018-01-26T08:10:59.715Z,8.81
2018-01-26T08:11:59.731Z,8.81
2018-01-26T08:13:51.896Z,8.89
2018-01-26T08:14:51.899Z,8.82
2018-01-26T08:16:45.111Z,8.84
2018-01-26T08:17:45.102Z,8.87
2018-01-26T08:19:37.309Z,8.90
2018-01-26T08:20:37.318Z,8.93
2018-01-26T08:22:30.489Z,8.90
2018-01-26T08:23:30.483Z,8.84
2018-01-26T08:25:23.670Z,8.69
2018-01-26T08:26:23.643Z,8.61
2018-01-26T08:28:16.793Z,8.71
2018-01-26T08:29:16.809Z,8.78
2018-01-26T08:31:09.948Z,8.82
2018-01-26T08:32:09.966Z,8.74
2018-01-26T08:34:03.119Z,8.72
2018-01-26T08:35:03.129Z,8.61
2018-01-26T08:36:56.283Z,8.66
2018-01-26T08:37:56.288Z,8.59
2018-01-26T08:39:49.434Z,8.69
2018-01-26T08:40:49.446Z,8.59
2018-01-26T08:42:42.732Z,8.31
2018-01-26T08:43:42.608Z,8.16
2018-01-26T08:45:35.743Z,8.44
2018-01-26T08:46:35.767Z,8.54
2018-01-26T08:48:29.271Z,8.68
2018-01-26T08:49:28.934Z,8.64
2018-01-26T08:51:22.064Z,8.74
2018-01-26T08:52:22.085Z,8.77
2018-01-26T08:54:31.613Z,8.79
2018-01-26T08:55:31.592Z,8.71
2018-01-26T08:57:24.782Z,8.82
2018-01-26T08:58:24.779Z,8.84
2018-01-26T09:00:17.953Z,8.90
2018-01-26T09:01:17.969Z,8.89
2018-01-26T09:03:11.130Z,8.92
2018-01-26T09:04:11.132Z,8.86
2018-01-26T09:06:04.267Z,9.05
2018-01-26T09:07:04.301Z,9.02
2018-01-26T09:08:57.437Z,9.03
2018-01-26T09:09:57.441Z,9.09
2018-01-26T09:11:50.598Z,9.03
2018-01-26T09:12:50.609Z,9.05
2018-01-26T09:14:43.758Z,9.02
2018-01-26T09:15:43.761Z,8.99
2018-01-26T09:17:36.911Z,9.00
2018-01-26T09:18:36.920Z,8.96
2018-01-26T09:20:30.088Z,9.00
2018-01-26T09:21:30.111Z,8.97
2018-01-26T09:23:23.310Z,8.92
2018-01-26T09:24:23.305Z,8.99
2018-01-26T09:26:16.601Z,8.89
2018-01-26T09:27:16.469Z,8.86
2018-01-26T09:29:09.619Z,8.84
2018-01-26T09:30:09.620Z,8.84
2018-01-26T09:32:02.792Z,8.87
2018-01-26T09:33:02.790Z,8.95
2018-01-26T09:34:55.927Z,8.84
2018-01-26T09:35:55.947Z,8.82
2018-01-26T09:37:49.099Z,8.74
2018-01-26T09:38:49.113Z,8.81
2018-01-26T09:40:42.248Z,8.92
2018-01-26T09:41:42.268Z,8.84
2018-01-26T09:43:35.426Z,8.97
2018-01-26T09:44:35.433Z,8.95
2018-01-26T09:46:28.610Z,8.89
2018-01-26T09:47:28.630Z,8.90
2018-01-26T09:49:21.787Z,8.96
2018-01-26T09:50:21.791Z,9.00
2018-01-26T09:52:14.945Z,8.97
2018-01-26T09:53:14.948Z,9.02
2018-01-26T09:55:08.105Z,8.72
2018-01-26T09:56:08.148Z,8.72
2018-01-26T09:58:01.262Z,8.77
2018-01-26T09:59:01.264Z,8.68
2018-01-26T10:00:54.462Z,8.68
2018-01-26T10:01:54.483Z,8.78
2018-01-26T10:03:47.635Z,8.63
2018-01-26T10:04:47.646Z,8.77
2018-01-26T10:06:40.917Z,8.82
2018-01-26T10:07:40.943Z,8.79
2018-01-26T10:09:34.079Z,8.84
2018-01-26T10:10:34.097Z,8.90
2018-01-26T10:12:27.245Z,8.89
2018-01-26T10:13:27.250Z,8.87
2018-01-26T10:15:20.405Z,8.95
2018-01-26T10:16:20.413Z,8.89
2018-01-26T10:18:13.572Z,8.92
2018-01-26T10:19:13.573Z,8.89
2018-01-26T10:21:06.718Z,8.99
2018-01-26T10:22:06.733Z,8.97
2018-01-26T10:23:59.889Z,8.99
2018-01-26T10:24:59.889Z,9.00
2018-01-26T10:26:53.045Z,8.99
2018-01-26T10:27:53.049Z,8.93
2018-01-26T10:29:46.314Z,9.00
2018-01-26T10:30:46.262Z,8.99
2018-01-26T10:32:39.427Z,8.99
2018-01-26T10:33:39.453Z,8.96
2018-01-26T10:35:32.620Z,8.92
2018-01-26T10:36:32.749Z,8.86
2018-01-26T10:38:25.781Z,8.86
2018-01-26T10:39:25.785Z,8.90
2018-01-26T10:41:18.978Z,8.87
2018-01-26T10:42:18.993Z,8.81
2018-01-26T10:44:12.156Z,8.68
2018-01-26T10:45:12.157Z,8.59
2018-01-26T10:47:05.298Z,8.57
2018-01-26T10:48:05.309Z,8.63
2018-01-26T10:50:11.893Z,8.66
2018-01-26T10:51:11.893Z,8.57
2018-01-26T10:53:05.108Z,8.52
2018-01-26T10:54:05.116Z,8.50
2018-01-26T10:55:58.317Z,8.42
2018-01-26T10:56:58.306Z,8.44
2018-01-26T10:58:51.464Z,8.35
2018-01-26T10:59:51.470Z,8.50
2018-01-26T11:01:44.617Z,8.61
2018-01-26T11:02:44.640Z,8.66
2018-01-26T11:04:37.799Z,8.71
2018-01-26T11:05:37.821Z,8.78
2018-01-26T11:07:31.028Z,8.81
2018-01-26T11:08:31.160Z,8.81
2018-01-26T11:10:24.355Z,8.84
2018-01-26T11:11:24.298Z,8.95
2018-01-26T11:13:17.447Z,9.05
2018-01-26T11:14:17.467Z,8.96
2018-01-26T11:16:10.625Z,9.08
2018-01-26T11:17:10.637Z,9.05
2018-01-26T11:19:03.796Z,8.95
2018-01-26T11:20:03.803Z,8.84
2018-01-26T11:21:56.948Z,8.71
2018-01-26T11:22:56.961Z,8.74
2018-01-26T11:24:50.184Z,8.66
2018-01-26T11:25:50.174Z,8.71
2018-01-26T11:27:43.308Z,8.74
2018-01-26T11:28:43.321Z,8.82
2018-01-26T11:30:36.595Z,8.86
2018-01-26T11:31:36.516Z,8.93
2018-01-26T11:33:29.668Z,8.82
2018-01-26T11:34:29.684Z,8.89
2018-01-26T11:36:22.939Z,8.82
2018-01-26T11:37:22.939Z,8.78
2018-01-26T11:39:16.089Z,8.74
2018-01-26T11:40:16.090Z,8.82
2018-01-26T11:42:09.245Z,8.99
2018-01-26T11:43:09.261Z,8.99
2018-01-26T11:45:02.430Z,9.05
2018-01-26T11:46:02.442Z,9.05
2018-01-26T11:47:55.577Z,9.09
2018-01-26T11:48:55.597Z,9.15
2018-01-26T11:50:48.757Z,8.87
2018-01-26T11:51:48.763Z,8.99
2018-01-26T11:53:41.923Z,9.05
2018-01-26T11:54:41.940Z,9.16
2018-01-26T11:56:35.147Z,9.26
2018-01-26T11:57:35.150Z,9.22
2018-01-26T11:59:28.304Z,9.26
2018-01-26T12:00:28.313Z,9.26
2018-01-26T12:02:21.439Z,9.39
2018-01-26T12:03:21.465Z,9.37
2018-01-26T12:05:14.611Z,9.42
2018-01-26T12:06:14.618Z,9.39
2018-01-26T12:08:07.762Z,9.44
2018-01-26T12:09:07.797Z,9.49
2018-01-26T12:11:00.933Z,9.54
2018-01-26T12:12:00.954Z,9.52
2018-01-26T12:13:54.079Z,9.49
2018-01-26T12:14:54.102Z,9.47
2018-01-26T12:16:47.270Z,9.62
2018-01-26T12:17:47.267Z,9.59
2018-01-26T12:19:40.458Z,9.62
2018-01-26T12:20:40.453Z,9.63
2018-01-26T12:22:33.665Z,9.62
2018-01-26T12:23:33.678Z,9.72
2018-01-26T12:25:26.840Z,9.82
2018-01-26T12:26:26.849Z,9.81
2018-01-26T12:28:20.029Z,9.97
2018-01-26T12:29:20.057Z,9.94
2018-01-26T12:31:13.245Z,10.00
2018-01-26T12:32:13.251Z,9.94
2018-01-26T12:34:06.417Z,9.87
2018-01-26T12:35:06.429Z,9.84
2018-01-26T12:37:15.950Z,9.97
2018-01-26T12:38:15.957Z,10.00
2018-01-26T12:40:09.106Z,10.15
2018-01-26T12:41:09.120Z,10.13
2018-01-26T12:43:02.250Z,10.15
2018-01-26T12:44:02.275Z,10.06
2018-01-26T12:45:55.426Z,10.00
2018-01-26T12:46:55.450Z,10.07
2018-01-26T12:48:47.721Z,10.02
2018-01-26T12:49:47.739Z,10.05
2018-01-26T12:51:40.920Z,10.02
2018-01-26T12:52:40.922Z,10.05
2018-01-26T12:54:34.060Z,10.03
2018-01-26T12:55:34.083Z,10.00
2018-01-26T12:57:27.243Z,9.82
2018-01-26T12:58:27.245Z,9.80
2018-01-26T13:00:20.394Z,9.81
2018-01-26T13:01:20.399Z,9.91
2018-01-26T13:03:13.547Z,9.85
2018-01-26T13:04:13.563Z,9.81
2018-01-26T13:06:06.718Z,9.95
2018-01-26T13:07:06.737Z,9.88
2018-01-26T13:08:59.917Z,9.95
2018-01-26T13:09:59.938Z,9.74
2018-01-26T13:11:53.080Z,9.72
2018-01-26T13:12:53.134Z,9.77
2018-01-26T13:14:46.372Z,9.84
2018-01-26T13:15:46.258Z,9.88
2018-01-26T13:17:39.448Z,9.87
2018-01-26T13:18:39.456Z,9.80
2018-01-26T13:20:32.661Z,9.84
2018-01-26T13:21:32.625Z,9.85
2018-01-26T13:23:25.754Z,9.85
2018-01-26T13:24:25.777Z,9.88
2018-01-26T13:26:18.928Z,9.91
2018-01-26T13:27:18.935Z,9.87
2018-01-26T13:29:12.076Z,9.88
2018-01-26T13:30:12.094Z,10.05
2018-01-26T13:32:05.280Z,10.15
2018-01-26T13:33:05.295Z,10.20
2018-01-26T13:34:58.448Z,10.15
2018-01-26T13:35:58.472Z,10.13
2018-01-26T13:37:51.743Z,10.33
2018-01-26T13:38:51.677Z,10.33
2018-01-26T13:40:44.930Z,10.39
2018-01-26T13:41:44.858Z,10.33
2018-01-26T13:43:37.997Z,10.20
2018-01-26T13:44:38.024Z,10.18
2018-01-26T13:46:31.200Z,10.13
2018-01-26T13:47:31.209Z,10.12
2018-01-26T13:49:24.398Z,10.20
2018-01-26T13:50:24.422Z,10.20
2018-01-26T13:52:17.586Z,10.15
2018-01-26T13:53:17.594Z,10.15
2018-01-26T13:55:10.825Z,10.20
2018-01-26T13:56:10.820Z,10.17
2018-01-26T13:58:03.977Z,10.02
2018-01-26T13:59:03.984Z,10.05
2018-01-26T14:00:57.159Z,10.06
2018-01-26T14:01:57.178Z,10.07
2018-01-26T14:03:50.297Z,10.33
2018-01-26T14:04:50.312Z,10.34
2018-01-26T14:06:43.467Z,10.55
2018-01-26T14:07:43.476Z,10.51
2018-01-26T14:09:36.823Z,10.76
2018-01-26T14:10:36.796Z,10.61
2018-01-26T14:12:29.821Z,10.61
2018-01-26T14:13:29.819Z,10.55
2018-01-26T14:15:22.965Z,10.43
2018-01-26T14:16:22.981Z,10.38
2018-01-26T14:18:16.153Z,10.41
2018-01-26T14:19:16.164Z,10.38
2018-01-26T14:21:09.354Z,10.33
2018-01-26T14:22:09.363Z,10.31
2018-01-26T14:24:18.885Z,10.23
2018-01-26T14:25:18.911Z,10.18
2018-01-26T14:27:12.067Z,10.02
2018-01-26T14:28:12.060Z,10.15
2018-01-26T14:30:05.198Z,10.17
2018-01-26T14:31:05.218Z,10.10
2018-01-26T14:32:58.367Z,10.12
2018-01-26T14:33:58.374Z,10.13
2018-01-26T14:35:51.545Z,10.06
2018-01-26T14:36:51.564Z,10.18
2018-01-26T14:39:01.072Z,10.13
2018-01-26T14:40:01.090Z,10.02
2018-01-26T14:41:54.262Z,10.06
2018-01-26T14:42:54.265Z,9.97
2018-01-26T14:44:47.437Z,10.03
2018-01-26T14:45:47.451Z,9.92
2018-01-26T14:47:39.647Z,9.82
2018-01-26T14:48:39.660Z,9.84
2018-01-26T14:50:32.883Z,9.88
2018-01-26T14:51:32.810Z,9.94
2018-01-26T14:53:26.008Z,9.94
2018-01-26T14:54:25.990Z,9.92
2018-01-26T14:56:35.501Z,9.82
2018-01-26T14:57:35.503Z,9.92
2018-01-26T14:59:27.696Z,9.92
2018-01-26T15:00:27.657Z,9.91
2018-01-26T15:02:19.879Z,9.85
2018-01-26T15:03:19.878Z,9.85
2018-01-26T15:05:12.032Z,9.88
2018-01-26T15:06:12.033Z,9.85
2018-01-26T15:08:04.254Z,9.82
2018-01-26T15:09:04.261Z,9.95
2018-01-26T15:10:56.736Z,10.02
2018-01-26T15:11:56.410Z,10.06
2018-01-26T15:13:48.614Z,10.02
2018-01-26T15:14:48.599Z,10.03
2018-01-26T15:16:40.744Z,10.20
2018-01-26T15:17:40.765Z,10.15
2018-01-26T15:19:33.923Z,10.13
2018-01-26T15:20:33.930Z,10.06
2018-01-26T15:22:27.087Z,10.05
2018-01-26T15:23:27.088Z,10.03
2018-01-26T15:25:20.248Z,10.05
2018-01-26T15:26:20.255Z,10.02
2018-01-26T15:28:13.431Z,9.97
2018-01-26T15:29:13.443Z,9.95
2018-01-26T15:31:06.613Z,9.95
2018-01-26T15:32:06.635Z,9.84
2018-01-26T15:33:59.775Z,9.84
2018-01-26T15:34:59.776Z,9.81
2018-01-26T15:36:52.941Z,9.91
2018-01-26T15:37:52.952Z,9.90
2018-01-26T15:39:46.155Z,9.95
2018-01-26T15:40:46.164Z,9.94
2018-01-26T15:42:39.309Z,9.95
2018-01-26T15:43:39.316Z,9.97
2018-01-26T15:45:32.501Z,9.91
2018-01-26T15:46:32.525Z,9.91
2018-01-26T15:48:25.732Z,9.88
2018-01-26T15:49:25.738Z,9.80
2018-01-26T15:51:18.950Z,9.88
2018-01-26T15:52:18.967Z,9.87
2018-01-26T15:54:12.119Z,9.88
2018-01-26T15:55:12.118Z,9.85
2018-01-26T15:57:05.276Z,9.80
2018-01-26T15:58:05.287Z,9.82
2018-01-26T15:59:58.475Z,9.70
2018-01-26T16:00:58.480Z,9.81
2018-01-26T16:02:51.682Z,9.77
2018-01-26T16:03:51.694Z,9.74
2018-01-26T16:05:44.856Z,9.76
2018-01-26T16:06:44.859Z,9.76
2018-01-26T16:08:38.037Z,9.84
2018-01-26T16:09:38.034Z,9.90
2018-01-26T16:11:31.187Z,9.84
2018-01-26T16:12:31.215Z,9.82
2018-01-26T16:14:24.481Z,9.82
2018-01-26T16:15:24.442Z,9.87
2018-01-26T16:17:17.601Z,9.85
2018-01-26T16:18:17.629Z,9.82
2018-01-26T16:20:10.782Z,9.85
2018-01-26T16:21:10.776Z,9.91
2018-01-26T16:23:03.927Z,9.73
2018-01-26T16:24:03.947Z,9.69
2018-01-26T16:25:56.126Z,9.82
2018-01-26T16:26:56.133Z,9.76
2018-01-26T16:28:49.329Z,9.66
2018-01-26T16:29:49.348Z,9.85
2018-01-26T16:31:42.510Z,9.72
2018-01-26T16:32:42.540Z,9.74
2018-01-26T16:34:35.693Z,9.74
2018-01-26T16:35:35.750Z,9.73
2018-01-26T16:37:27.869Z,9.73
2018-01-26T16:38:27.877Z,9.74
2018-01-26T16:40:20.077Z,9.72
2018-01-26T16:41:20.066Z,9.76
2018-01-26T16:43:13.249Z,9.80
2018-01-26T16:44:13.242Z,9.63
2018-01-26T16:46:06.410Z,9.62
2018-01-26T16:47:06.438Z,9.55
2018-01-26T16:48:58.598Z,9.58
2018-01-26T16:49:58.605Z,9.48
2018-01-26T16:51:50.742Z,9.59
2018-01-26T16:52:50.771Z,9.62
2018-01-26T16:54:42.926Z,9.62
2018-01-26T16:55:42.933Z,9.63
2018-01-26T16:57:36.087Z,9.72
2018-01-26T16:58:36.103Z,9.73
2018-01-26T17:00:29.318Z,9.69
2018-01-26T17:01:29.345Z,9.70
2018-01-26T17:03:22.486Z,9.69
2018-01-26T17:04:22.486Z,9.80
2018-01-26T17:06:15.654Z,9.74
2018-01-26T17:07:15.664Z,9.72
2018-01-26T17:09:07.897Z,9.80
2018-01-26T17:10:07.896Z,9.76
2018-01-26T17:12:01.041Z,9.76
2018-01-26T17:13:01.060Z,9.73
2018-01-26T17:14:53.279Z,9.82
2018-01-26T17:15:53.283Z,9.84
2018-01-26T17:17:46.767Z,9.74
2018-01-26T17:18:46.444Z,9.72
2018-01-26T17:20:39.708Z,9.72
2018-01-26T17:21:39.653Z,9.80
2018-01-26T17:23:32.894Z,9.76
2018-01-26T17:24:32.827Z,9.72
2018-01-26T17:26:25.971Z,9.77
2018-01-26T17:27:25.980Z,9.81
2018-01-26T17:29:19.158Z,9.77
2018-01-26T17:30:19.169Z,9.80
2018-01-26T17:32:12.302Z,9.76
2018-01-26T17:33:12.318Z,9.80
2018-01-26T17:35:05.469Z,9.73
2018-01-26T17:36:05.486Z,9.80
2018-01-26T17:37:57.624Z,9.74
2018-01-26T17:38:57.661Z,9.66
2018-01-26T17:40:49.833Z,9.66
2018-01-26T17:41:49.845Z,9.63
2018-01-26T17:43:43.003Z,9.67
2018-01-26T17:44:43.008Z,9.62
2018-01-26T17:46:36.165Z,9.72
2018-01-26T17:47:36.168Z,9.66
2018-01-26T17:49:29.360Z,9.82
2018-01-26T17:50:29.368Z,9.77
2018-01-26T17:52:22.542Z,9.72
2018-01-26T17:53:22.536Z,9.74
2018-01-26T17:55:15.732Z,9.76
2018-01-26T17:56:15.735Z,9.76
2018-01-26T17:58:08.888Z,9.84
2018-01-26T17:59:08.916Z,9.70
2018-01-26T18:01:01.096Z,9.72
2018-01-26T18:02:01.103Z,9.74
2018-01-26T18:03:54.274Z,9.82
2018-01-26T18:04:54.293Z,9.81
2018-01-26T18:06:47.467Z,9.74
2018-01-26T18:07:47.469Z,9.73
2018-01-26T18:09:40.632Z,9.62
2018-01-26T18:10:41.382Z,9.64
2018-01-26T18:12:33.830Z,9.59
2018-01-26T18:13:33.833Z,9.64
2018-01-26T18:15:27.035Z,9.67
2018-01-26T18:16:27.040Z,9.64
2018-01-26T18:18:19.327Z,9.54
2018-01-26T18:19:19.231Z,9.56
2018-01-26T18:21:11.408Z,9.52
2018-01-26T18:22:11.417Z,9.52
2018-01-26T18:24:03.595Z,9.59
2018-01-26T18:25:03.610Z,9.63
2018-01-26T18:26:55.763Z,9.72
2018-01-26T18:27:55.777Z,9.74
2018-01-26T18:29:47.976Z,9.81
2018-01-26T18:30:47.975Z,9.74
2018-01-26T18:32:40.169Z,9.67
2018-01-26T18:33:40.171Z,9.77
2018-01-26T18:35:32.336Z,9.73
2018-01-26T18:36:32.478Z,9.72
2018-01-26T18:38:24.529Z,9.69
2018-01-26T18:39:24.524Z,9.70
2018-01-26T18:41:17.691Z,9.72
2018-01-26T18:42:17.688Z,9.63
2018-01-26T18:44:10.868Z,9.67
2018-01-26T18:45:10.875Z,9.69
2018-01-26T18:47:04.049Z,9.73
2018-01-26T18:48:04.048Z,9.58
2018-01-26T18:49:57.255Z,9.45
2018-01-26T18:50:57.272Z,9.40
2018-01-26T18:52:50.447Z,9.37
2018-01-26T18:53:50.473Z,9.33
2018-01-26T18:55:43.617Z,9.34
2018-01-26T18:56:43.626Z,9.42
2018-01-26T18:58:36.769Z,9.55
2018-01-26T18:59:36.768Z,9.48
2018-01-26T19:01:28.963Z,9.44
2018-01-26T19:02:28.986Z,9.34